createdAt,value
2018-05-25T00:02:19.695Z,17.90
2018-05-25T00:04:47.238Z,17.90
2018-05-25T00:07:15.083Z,17.07
2018-05-25T00:09:43.183Z,17.67
2018-05-25T00:12:10.736Z,15.03
2018-05-25T00:14:39.188Z,15.83
2018-05-25T00:17:06.777Z,14.50
2018-05-25T00:19:34.596Z,14.43
2018-05-25T00:22:02.479Z,16.17
2018-05-25T00:24:30.270Z,20.10
2018-05-25T00:26:57.965Z,16.70
2018-05-25T00:29:25.599Z,18.77
2018-05-25T00:31:53.618Z,15.77
2018-05-25T00:34:21.160Z,15.80
2018-05-25T00:36:48.784Z,18.17
2018-05-25T00:39:16.476Z,18.20
2018-05-25T00:41:44.128Z,15.60
2018-05-25T00:44:11.671Z,15.90
2018-05-25T00:46:39.503Z,15.93
2018-05-25T00:49:07.116Z,17.07
2018-05-25T00:51:35.632Z,18.67
2018-05-25T00:54:03.173Z,18.23
2018-05-25T00:56:30.724Z,15.13
2018-05-25T00:58:59.039Z,16.50
2018-05-25T01:01:27.357Z,16.23
2018-05-25T01:03:54.915Z,17.53
2018-05-25T01:06:23.743Z,17.17
2018-05-25T01:08:52.147Z,15.73
2018-05-25T01:11:20.455Z,15.70
2018-05-25T01:13:48.006Z,16.60
2018-05-25T01:16:15.588Z,18.77
2018-05-25T01:18:51.894Z,21.87
2018-05-25T01:21:20.323Z,21.20
2018-05-25T01:23:47.878Z,17.30
2018-05-25T01:26:15.487Z,17.20
2018-05-25T01:28:43.087Z,17.03
2018-05-25T01:31:10.629Z,18.70
2018-05-25T01:33:38.302Z,18.20
2018-05-25T01:36:05.839Z,17.83
2018-05-25T01:38:33.483Z,17.53
2018-05-25T01:41:01.227Z,20.10
2018-05-25T01:43:28.853Z,21.50
2018-05-25T01:45:57.115Z,18.87
2018-05-25T01:48:24.707Z,18.57
2018-05-25T01:50:52.306Z,19.43
2018-05-25T01:53:20.983Z,20.53
2018-05-25T01:55:48.543Z,16.77
2018-05-25T01:58:16.969Z,20.90
2018-05-25T02:00:44.518Z,16.30
2018-05-25T02:03:12.059Z,15.73
2018-05-25T02:05:39.694Z,15.60
2018-05-25T02:08:08.015Z,16.27
2018-05-25T02:10:36.380Z,14.87
2018-05-25T02:13:04.749Z,15.70
2018-05-25T02:15:32.318Z,15.10
2018-05-25T02:17:59.860Z,17.70
2018-05-25T02:20:27.404Z,16.13
2018-05-25T02:22:54.947Z,20.73
2018-05-25T02:25:23.255Z,20.90
2018-05-25T02:27:50.799Z,18.93
2018-05-25T02:30:18.363Z,16.20
2018-05-25T02:32:45.992Z,15.03
2018-05-25T02:35:13.551Z,16.20
2018-05-25T02:37:41.111Z,17.70
2018-05-25T02:40:08.892Z,15.93
2018-05-25T02:42:36.451Z,16.00
2018-05-25T02:45:04.756Z,17.07
2018-05-25T02:47:32.377Z,16.47
2018-05-25T02:50:00.255Z,17.43
2018-05-25T02:52:27.799Z,22.60
2018-05-25T02:54:56.115Z,20.80
2018-05-25T02:57:23.784Z,19.73
2018-05-25T02:59:52.099Z,21.53
2018-05-25T03:02:20.426Z,20.37
2018-05-25T03:04:48.004Z,19.77
2018-05-25T03:07:15.650Z,20.50
2018-05-25T03:09:43.210Z,16.27
2018-05-25T03:12:10.764Z,15.97
2018-05-25T03:14:38.411Z,22.50
2018-05-25T03:17:05.961Z,18.00
2018-05-25T03:19:33.503Z,18.00
2018-05-25T03:22:01.891Z,20.87
2018-05-25T03:24:30.549Z,20.30
2018-05-25T03:26:58.116Z,18.33
2018-05-25T03:29:25.662Z,18.23
2018-05-25T03:31:54.252Z,16.70
2018-05-25T03:34:21.792Z,18.70
2018-05-25T03:36:49.342Z,18.97
2018-05-25T03:39:16.888Z,20.37
2018-05-25T03:41:45.236Z,17.20
2018-05-25T03:44:13.543Z,18.53
2018-05-25T03:46:41.091Z,17.47
2018-05-25T03:49:08.712Z,17.70
2018-05-25T03:51:37.035Z,22.23
2018-05-25T03:54:04.595Z,21.67
2018-05-25T03:56:32.907Z,21.03
2018-05-25T03:59:12.409Z,20.77
2018-05-25T04:01:51.935Z,19.53
2018-05-25T04:04:21.459Z,16.83
2018-05-25T04:06:49.763Z,19.37
2018-05-25T04:09:17.336Z,17.03
2018-05-25T04:11:45.816Z,17.37
2018-05-25T04:14:13.426Z,18.13
2018-05-25T04:16:40.944Z,20.40
2018-05-25T04:19:08.497Z,15.97
2018-05-25T04:21:36.819Z,17.73
2018-05-25T04:24:04.413Z,20.83
2018-05-25T04:26:31.958Z,17.53
2018-05-25T04:28:59.520Z,18.00
2018-05-25T04:31:27.073Z,18.90
2018-05-25T04:33:54.808Z,16.37
2018-05-25T04:36:23.183Z,18.93
2018-05-25T04:38:50.723Z,16.90
2018-05-25T04:41:18.282Z,16.10
2018-05-25T04:43:46.096Z,16.23
2018-05-25T04:46:13.649Z,18.97
2018-05-25T04:48:41.960Z,19.13
2018-05-25T04:51:09.499Z,15.43
2018-05-25T04:53:37.044Z,16.50
2018-05-25T04:56:04.605Z,17.63
2018-05-25T04:58:32.943Z,12.13
2018-05-25T05:01:00.681Z,14.27
2018-05-25T05:03:29.000Z,13.73
2018-05-25T05:05:58.520Z,19.13
2018-05-25T05:08:26.824Z,16.90
2018-05-25T05:10:55.147Z,18.10
2018-05-25T05:13:23.156Z,17.33
2018-05-25T05:15:50.715Z,17.83
2018-05-25T05:18:18.254Z,18.17
2018-05-25T05:20:46.024Z,19.23
2018-05-25T05:23:13.571Z,18.60
2018-05-25T05:25:41.118Z,18.17
2018-05-25T05:28:09.031Z,18.90
2018-05-25T05:30:37.354Z,21.70
2018-05-25T05:33:04.903Z,21.20
2018-05-25T05:35:32.457Z,18.93
2018-05-25T05:38:00.948Z,18.87
2018-05-25T05:40:28.488Z,19.33
2018-05-25T05:42:56.822Z,23.30
2018-05-25T05:45:24.445Z,18.80
2018-05-25T05:47:52.018Z,18.67
2018-05-25T05:50:19.585Z,19.90
2018-05-25T05:52:47.145Z,19.83
2018-05-25T05:55:15.655Z,20.07
2018-05-25T05:57:44.061Z,20.50
2018-05-25T06:00:11.639Z,19.90
2018-05-25T06:02:39.968Z,21.03
2018-05-25T06:05:07.543Z,23.67
2018-05-25T06:07:35.110Z,23.20
2018-05-25T06:10:03.430Z,23.33
2018-05-25T06:12:30.984Z,23.13
2018-05-25T06:14:59.295Z,19.80
2018-05-25T06:17:27.615Z,21.47
2018-05-25T06:19:55.154Z,24.13
2018-05-25T06:22:22.918Z,23.50
2018-05-25T06:24:50.519Z,25.60
2018-05-25T06:27:18.069Z,21.67
2018-05-25T06:29:45.789Z,21.60
2018-05-25T06:32:13.347Z,28.37
2018-05-25T06:34:40.898Z,24.90
2018-05-25T06:37:09.481Z,23.60
2018-05-25T06:39:37.037Z,25.83
2018-05-25T06:42:04.579Z,24.80
2018-05-25T06:44:32.171Z,24.47
2018-05-25T06:46:59.753Z,23.07
2018-05-25T06:49:27.300Z,23.83
2018-05-25T06:51:54.940Z,25.00
2018-05-25T06:54:22.557Z,25.67
2018-05-25T06:56:50.159Z,26.93
2018-05-25T06:59:17.720Z,24.80
2018-05-25T07:01:45.488Z,24.97
2018-05-25T07:04:13.069Z,23.70
2018-05-25T07:06:40.612Z,24.07
2018-05-25T07:09:08.934Z,23.70
2018-05-25T07:11:36.480Z,25.23
2018-05-25T07:14:04.059Z,22.43
2018-05-25T07:16:32.432Z,22.20
2018-05-25T07:18:59.988Z,23.20
2018-05-25T07:21:27.591Z,26.67
2018-05-25T07:23:55.128Z,22.57
2018-05-25T07:26:22.918Z,23.60
2018-05-25T07:28:50.480Z,23.63
2018-05-25T07:31:18.032Z,21.13
2018-05-25T07:33:46.177Z,21.83
2018-05-25T07:36:14.489Z,24.10
2018-05-25T07:38:42.031Z,20.63
2018-05-25T07:41:09.595Z,22.13
2018-05-25T07:43:37.153Z,23.07
2018-05-25T07:46:05.469Z,22.20
2018-05-25T07:48:33.779Z,20.10
2018-05-25T07:51:01.421Z,21.57
2018-05-25T07:53:28.973Z,20.43
2018-05-25T07:55:56.549Z,20.50
2018-05-25T07:58:24.527Z,22.80
2018-05-25T08:00:52.093Z,21.87
2018-05-25T08:03:20.404Z,21.70
2018-05-25T08:05:48.019Z,20.00
2018-05-25T08:08:15.817Z,20.80
2018-05-25T08:10:43.371Z,19.77
2018-05-25T08:13:11.690Z,21.30
2018-05-25T08:15:39.316Z,21.30
2018-05-25T08:18:06.864Z,19.10
2018-05-25T08:20:34.444Z,16.97
2018-05-25T08:23:02.053Z,17.33
2018-05-25T08:25:29.645Z,16.90
2018-05-25T08:27:57.202Z,16.97
2018-05-25T08:30:24.759Z,15.07
2018-05-25T08:32:52.330Z,14.87
2018-05-25T08:35:20.684Z,16.27
2018-05-25T08:37:48.276Z,13.13
2018-05-25T08:40:15.937Z,11.50
2018-05-25T08:42:43.478Z,16.60
2018-05-25T08:45:11.792Z,14.53
2018-05-25T08:47:40.129Z,12.60
2018-05-25T08:50:07.832Z,13.07
2018-05-25T08:52:35.378Z,12.20
2018-05-25T08:55:03.018Z,13.57
2018-05-25T08:57:30.708Z,12.07
2018-05-25T08:59:58.245Z,11.40
2018-05-25T09:02:25.792Z,11.97
2018-05-25T09:04:54.324Z,13.40
2018-05-25T09:07:21.865Z,10.77
2018-05-25T09:09:49.422Z,11.27
2018-05-25T09:12:16.991Z,10.03
2018-05-25T09:14:44.523Z,11.40
2018-05-25T09:17:12.088Z,12.45
2018-05-25T09:19:40.433Z,14.10
2018-05-25T09:22:08.411Z,11.63
2018-05-25T09:24:35.978Z,11.48
2018-05-25T09:27:03.563Z,10.38
2018-05-25T09:29:33.002Z,13.77
2018-05-25T09:32:00.586Z,21.67
2018-05-25T09:34:28.161Z,15.30
2018-05-25T09:36:55.756Z,16.52
2018-05-25T09:39:23.578Z,15.60
2018-05-25T09:41:51.158Z,16.98
2018-05-25T09:44:18.736Z,17.20
2018-05-25T09:46:46.372Z,16.95
2018-05-25T09:49:14.719Z,19.70
2018-05-25T09:51:42.301Z,15.82
2018-05-25T09:54:09.893Z,14.57
2018-05-25T09:56:38.887Z,13.27
2018-05-25T09:59:06.467Z,14.85
2018-05-25T10:01:34.040Z,13.65
2018-05-25T10:04:02.493Z,14.45
2018-05-25T10:06:30.439Z,13.20
2018-05-25T10:08:58.782Z,13.15
2018-05-25T10:11:26.370Z,13.70
2018-05-25T10:13:53.949Z,10.85
2018-05-25T10:16:21.511Z,10.98
2018-05-25T10:18:49.095Z,10.85
2018-05-25T10:21:16.761Z,17.48
2018-05-25T10:23:45.112Z,15.65
2018-05-25T10:26:13.115Z,9.85
2018-05-25T10:28:40.708Z,10.35
2018-05-25T10:31:08.340Z,11.23
2018-05-25T10:33:36.671Z,8.88
2018-05-25T10:36:04.231Z,9.30
2018-05-25T10:38:32.571Z,9.60
2018-05-25T10:41:00.203Z,7.35
2018-05-25T10:43:27.748Z,10.15
2018-05-25T10:45:55.335Z,8.90
2018-05-25T10:48:22.960Z,8.88
2018-05-25T10:50:51.299Z,7.80
2018-05-25T10:53:18.974Z,7.32
2018-05-25T10:55:46.736Z,11.57
2018-05-25T10:58:15.125Z,6.87
2018-05-25T11:00:42.689Z,7.50
2018-05-25T11:03:10.269Z,11.07
2018-05-25T11:05:38.057Z,9.38
2018-05-25T11:08:05.650Z,6.93
2018-05-25T11:10:33.215Z,10.35
2018-05-25T11:13:00.782Z,7.95
2018-05-25T11:15:29.266Z,8.23
2018-05-25T11:17:57.595Z,6.45
2018-05-25T11:20:25.147Z,7.37
2018-05-25T11:22:53.600Z,9.35
2018-05-25T11:25:21.160Z,8.27
2018-05-25T11:27:48.730Z,8.35
2018-05-25T11:30:17.106Z,8.18
2018-05-25T11:32:44.696Z,7.32
2018-05-25T11:35:12.324Z,7.18
2018-05-25T11:37:39.947Z,6.80
2018-05-25T11:40:07.659Z,6.75
2018-05-25T11:42:35.232Z,8.02
2018-05-25T11:45:02.791Z,7.57
2018-05-25T11:47:30.403Z,6.43
2018-05-25T11:49:58.022Z,5.45
2018-05-25T11:52:26.367Z,6.30
2018-05-25T11:54:53.938Z,6.60
2018-05-25T11:57:21.548Z,3.70
2018-05-25T11:59:49.112Z,3.75
2018-05-25T12:02:16.718Z,4.10
2018-05-25T12:04:44.287Z,4.00
2018-05-25T12:07:12.051Z,5.15
2018-05-25T12:09:39.755Z,7.78
2018-05-25T12:12:07.443Z,5.37
2018-05-25T12:14:35.314Z,12.68
2018-05-25T12:17:02.860Z,5.40
2018-05-25T12:19:31.953Z,4.10
2018-05-25T12:21:59.520Z,6.87
2018-05-25T12:24:27.090Z,4.10
2018-05-25T12:26:54.664Z,5.47
2018-05-25T12:29:22.264Z,5.20
2018-05-25T12:31:49.929Z,5.53
2018-05-25T12:34:17.506Z,8.25
2018-05-25T12:36:45.063Z,7.78
2018-05-25T12:39:12.636Z,6.90
2018-05-25T12:41:41.864Z,6.55
2018-05-25T12:44:10.290Z,5.62
2018-05-25T12:46:37.970Z,4.57
2018-05-25T12:49:05.528Z,9.07
2018-05-25T12:51:33.846Z,6.30
2018-05-25T12:54:02.250Z,4.55
2018-05-25T12:56:29.821Z,5.28
2018-05-25T12:58:57.371Z,4.65
2018-05-25T13:01:24.996Z,5.25
2018-05-25T13:03:53.368Z,6.93
2018-05-25T13:06:20.944Z,5.65
2018-05-25T13:08:48.512Z,5.10
2018-05-25T13:11:16.152Z,7.03
2018-05-25T13:13:44.477Z,8.43
2018-05-25T13:16:12.040Z,6.60
2018-05-25T13:18:40.387Z,4.12
2018-05-25T13:21:08.298Z,4.20
2018-05-25T13:23:35.849Z,5.90
2018-05-25T13:26:03.411Z,5.90
2018-05-25T13:28:31.296Z,4.07
2018-05-25T13:30:59.624Z,11.35
2018-05-25T13:33:29.207Z,9.35
2018-05-25T13:35:56.832Z,4.45
2018-05-25T13:38:24.532Z,6.97
2018-05-25T13:40:52.099Z,7.12
2018-05-25T13:43:19.671Z,5.75
2018-05-25T13:45:47.559Z,3.30
2018-05-25T13:48:15.217Z,3.53
2018-05-25T13:50:42.803Z,3.83
2018-05-25T13:53:10.370Z,3.42
2018-05-25T13:55:38.807Z,4.75
2018-05-25T13:58:06.380Z,4.50
2018-05-25T14:00:33.950Z,7.53
2018-05-25T14:03:01.627Z,3.72
2018-05-25T14:05:29.948Z,3.70
2018-05-25T14:07:57.511Z,4.53
2018-05-25T14:10:25.074Z,6.62
2018-05-25T14:12:52.658Z,6.30
2018-05-25T14:15:20.216Z,5.55
2018-05-25T14:17:47.792Z,2.80
2018-05-25T14:20:15.431Z,3.95
2018-05-25T14:22:43.771Z,3.22
2018-05-25T14:25:11.331Z,5.55
2018-05-25T14:27:39.814Z,5.03
2018-05-25T14:30:07.397Z,3.42
2018-05-25T14:32:34.961Z,3.55
2018-05-25T14:35:02.775Z,2.30
2018-05-25T14:37:30.611Z,2.85
2018-05-25T14:39:58.173Z,3.62
2018-05-25T14:42:26.501Z,4.22
2018-05-25T14:44:54.108Z,5.28
2018-05-25T14:47:21.696Z,5.30
2018-05-25T14:49:49.252Z,3.75
2018-05-25T14:52:16.818Z,3.90
2018-05-25T14:54:50.947Z,4.93
2018-05-25T14:57:19.281Z,7.40
2018-05-25T14:59:46.933Z,4.97
2018-05-25T15:02:15.373Z,5.43
2018-05-25T15:04:43.671Z,5.65
2018-05-25T15:07:11.224Z,5.37
2018-05-25T15:09:39.781Z,5.57
2018-05-25T15:12:08.331Z,4.12
2018-05-25T15:14:36.660Z,5.43
2018-05-25T15:17:04.229Z,4.25
2018-05-25T15:19:32.574Z,5.85
2018-05-25T15:22:00.149Z,6.25
2018-05-25T15:24:27.707Z,5.30
2018-05-25T15:26:56.036Z,3.83
2018-05-25T15:29:23.829Z,5.90
2018-05-25T15:31:51.398Z,5.68
2018-05-25T15:34:19.209Z,4.62
2018-05-25T15:36:46.940Z,6.00
2018-05-25T15:39:14.498Z,5.30
2018-05-25T15:41:42.105Z,4.40
2018-05-25T15:44:09.844Z,5.20
2018-05-25T15:46:37.433Z,5.07
2018-05-25T15:49:04.999Z,3.70
2018-05-25T15:51:32.671Z,4.00
2018-05-25T15:54:00.240Z,3.17
2018-05-25T15:56:28.634Z,3.83
2018-05-25T15:58:56.135Z,4.15
2018-05-25T16:01:31.438Z,3.87
2018-05-25T16:03:58.998Z,2.70
2018-05-25T16:06:26.565Z,5.12
2018-05-25T16:08:54.969Z,4.97
2018-05-25T16:11:23.485Z,6.12
2018-05-25T16:13:51.820Z,5.55
2018-05-25T16:16:19.409Z,5.12
2018-05-25T16:18:47.029Z,2.83
2018-05-25T16:21:14.595Z,2.95
2018-05-25T16:23:42.184Z,3.10
2018-05-25T16:26:09.783Z,3.85
2018-05-25T16:28:37.347Z,3.28
2018-05-25T16:31:04.906Z,6.60
2018-05-25T16:33:32.600Z,3.53
2018-05-25T16:36:00.176Z,5.50
2018-05-25T16:38:27.732Z,8.30
2018-05-25T16:40:56.072Z,3.58
2018-05-25T16:43:23.860Z,5.20
2018-05-25T16:45:51.655Z,5.05
2018-05-25T16:48:19.211Z,3.08
2018-05-25T16:50:46.836Z,7.57
2018-05-25T16:53:14.424Z,3.17
2018-05-25T16:55:41.991Z,5.32
2018-05-25T16:58:09.774Z,3.70
2018-05-25T17:00:37.326Z,4.37
2018-05-25T17:03:05.669Z,3.27
2018-05-25T17:05:33.223Z,5.70
2018-05-25T17:08:00.939Z,3.40
2018-05-25T17:10:28.492Z,4.28
2018-05-25T17:12:56.161Z,7.17
2018-05-25T17:15:23.727Z,4.50
2018-05-25T17:17:51.332Z,3.80
2018-05-25T17:20:18.877Z,3.33
2018-05-25T17:22:46.598Z,3.73
2018-05-25T17:25:14.225Z,4.15
2018-05-25T17:27:42.535Z,3.47
2018-05-25T17:30:10.097Z,4.07
2018-05-25T17:32:37.643Z,4.82
2018-05-25T17:35:05.199Z,3.30
2018-05-25T17:37:32.738Z,5.30
2018-05-25T17:40:00.288Z,3.43
2018-05-25T17:42:27.865Z,5.27
2018-05-25T17:44:55.523Z,4.00
2018-05-25T17:47:24.382Z,5.87
2018-05-25T17:49:51.937Z,3.97
2018-05-25T17:52:19.476Z,4.53
2018-05-25T17:54:47.075Z,3.10
2018-05-25T17:57:15.476Z,9.33
2018-05-25T17:59:43.799Z,5.57
2018-05-25T18:02:11.332Z,3.67
2018-05-25T18:04:38.928Z,3.70
2018-05-25T18:07:06.468Z,4.73
2018-05-25T18:09:34.024Z,6.07
2018-05-25T18:12:01.814Z,5.97
2018-05-25T18:14:30.119Z,5.93
2018-05-25T18:16:58.422Z,5.03
2018-05-25T18:19:25.970Z,8.10
2018-05-25T18:21:53.587Z,5.07
2018-05-25T18:24:21.923Z,6.20
2018-05-25T18:26:49.451Z,4.77
2018-05-25T18:29:17.133Z,4.07
2018-05-25T18:31:44.669Z,4.63
2018-05-25T18:34:12.204Z,3.80
2018-05-25T18:36:39.964Z,4.93
2018-05-25T18:39:07.503Z,4.70
2018-05-25T18:41:35.063Z,6.67
2018-05-25T18:44:03.531Z,4.23
2018-05-25T18:46:31.155Z,5.77
2018-05-25T18:48:58.689Z,5.93
2018-05-25T18:51:26.233Z,4.33
2018-05-25T18:54:06.477Z,6.23
2018-05-25T18:56:34.040Z,6.53
2018-05-25T18:59:02.047Z,5.87
2018-05-25T19:01:29.607Z,7.00
2018-05-25T19:03:57.156Z,6.57
2018-05-25T19:06:24.792Z,8.07
2018-05-25T19:08:52.334Z,4.70
2018-05-25T19:11:20.664Z,6.60
2018-05-25T19:13:48.204Z,7.57
2018-05-25T19:16:15.807Z,5.97
2018-05-25T19:18:44.111Z,5.87
2018-05-25T19:21:12.425Z,5.77
2018-05-25T19:23:40.078Z,5.73
2018-05-25T19:26:07.646Z,4.67
2018-05-25T19:28:35.275Z,5.40
2018-05-25T19:31:03.589Z,6.73
2018-05-25T19:33:31.274Z,6.63
2018-05-25T19:35:58.815Z,4.87
2018-05-25T19:38:26.355Z,5.03
2018-05-25T19:40:53.980Z,5.53
2018-05-25T19:43:21.583Z,4.67
2018-05-25T19:45:49.131Z,6.73
2018-05-25T19:48:16.872Z,8.27
2018-05-25T19:50:45.177Z,6.83
2018-05-25T19:53:13.478Z,8.03
2018-05-25T19:55:41.785Z,5.57
2018-05-25T19:58:10.121Z,5.70
2018-05-25T20:00:37.640Z,5.90
2018-05-25T20:03:05.187Z,7.27
2018-05-25T20:05:32.795Z,6.90
2018-05-25T20:08:00.363Z,8.83
2018-05-25T20:10:27.904Z,9.17
2018-05-25T20:12:55.770Z,9.43
2018-05-25T20:15:23.351Z,9.67
2018-05-25T20:17:50.897Z,7.77
2018-05-25T20:20:18.445Z,7.83
2018-05-25T20:22:46.865Z,9.70
2018-05-25T20:25:14.404Z,7.77
2018-05-25T20:27:41.964Z,7.93
2018-05-25T20:30:09.562Z,10.77
2018-05-25T20:32:37.159Z,7.40
2018-05-25T20:35:04.783Z,7.80
2018-05-25T20:37:33.101Z,8.23
2018-05-25T20:40:00.676Z,9.83
2018-05-25T20:42:28.232Z,8.17
2018-05-25T20:44:56.541Z,9.27
2018-05-25T20:47:25.567Z,7.57
2018-05-25T20:49:54.033Z,8.50
2018-05-25T20:52:21.581Z,10.37
2018-05-25T20:54:49.124Z,10.10
2018-05-25T20:57:17.524Z,8.60
2018-05-25T20:59:45.102Z,8.07
2018-05-25T21:02:12.645Z,9.40
2018-05-25T21:04:40.194Z,8.83
2018-05-25T21:07:08.742Z,8.30
2018-05-25T21:09:36.289Z,10.93
2018-05-25T21:12:04.597Z,8.43
2018-05-25T21:14:32.315Z,9.90
2018-05-25T21:16:59.861Z,9.33
2018-05-25T21:19:28.183Z,8.60
2018-05-25T21:21:55.724Z,9.87
2018-05-25T21:24:23.300Z,10.87
2018-05-25T21:26:50.844Z,9.57
2018-05-25T21:29:18.385Z,9.60
2018-05-25T21:31:46.789Z,9.90
2018-05-25T21:34:15.116Z,12.80
2018-05-25T21:36:42.676Z,8.77
2018-05-25T21:39:10.241Z,12.20
2018-05-25T21:41:37.798Z,10.27
2018-05-25T21:44:05.340Z,9.77
2018-05-25T21:46:33.649Z,9.63
2018-05-25T21:49:01.196Z,10.50
2018-05-25T21:51:28.736Z,8.53
2018-05-25T21:53:56.276Z,9.37
2018-05-25T21:56:24.742Z,8.70
2018-05-25T21:58:52.320Z,8.80
2018-05-25T22:01:19.864Z,9.83
2018-05-25T22:03:48.228Z,9.80
2018-05-25T22:06:16.580Z,12.10
2018-05-25T22:08:44.120Z,11.13
2018-05-25T22:11:11.663Z,10.77
2018-05-25T22:13:39.223Z,11.40
2018-05-25T22:16:06.784Z,9.63
2018-05-25T22:18:34.333Z,10.10
2018-05-25T22:21:02.017Z,10.07
2018-05-25T22:23:29.562Z,10.13
2018-05-25T22:25:57.886Z,9.30
2018-05-25T22:28:25.426Z,11.10
2018-05-25T22:30:52.979Z,15.43
2018-05-25T22:33:20.541Z,10.67
2018-05-25T22:35:48.086Z,10.67
2018-05-25T22:38:16.968Z,9.87
2018-05-25T22:40:45.276Z,10.47
2018-05-25T22:43:24.919Z,10.97
2018-05-25T22:46:04.286Z,11.10
2018-05-25T22:48:43.765Z,11.70
2018-05-25T22:51:23.736Z,10.97
2018-05-25T22:53:56.606Z,13.50
2018-05-25T22:56:24.157Z,13.33
2018-05-25T22:58:51.767Z,17.47
2018-05-25T23:01:20.094Z,12.07
2018-05-25T23:03:47.778Z,14.47
2018-05-25T23:06:15.345Z,11.67
2018-05-25T23:08:43.675Z,11.80
2018-05-25T23:11:11.224Z,12.67
2018-05-25T23:13:39.688Z,11.20
2018-05-25T23:16:07.245Z,11.07
2018-05-25T23:18:34.822Z,13.33
2018-05-25T23:21:03.150Z,10.77
2018-05-25T23:23:30.956Z,11.90
2018-05-25T23:25:58.489Z,11.10
2018-05-25T23:28:26.036Z,11.80
2018-05-25T23:30:53.635Z,11.40
2018-05-25T23:33:21.952Z,11.67
2018-05-25T23:35:49.499Z,13.37
2018-05-25T23:38:17.231Z,15.03
2018-05-25T23:40:44.770Z,14.53
2018-05-25T23:43:12.327Z,12.67
2018-05-25T23:45:40.023Z,12.60
2018-05-25T23:48:07.575Z,12.40
2018-05-25T23:50:35.120Z,12.90
2018-05-25T23:53:03.715Z,11.50
2018-05-25T23:55:31.343Z,13.10
2018-05-25T23:57:58.892Z,12.17
